createdAt,value
2023-02-22T00:01:23.018Z,99.90
2023-02-22T00:03:51.662Z,99.90
2023-02-22T00:06:21.113Z,99.90
2023-02-22T00:08:49.746Z,99.90
2023-02-22T00:11:16.904Z,99.90
2023-02-22T00:13:45.032Z,99.90
2023-02-22T00:16:20.624Z,99.90
2023-02-22T00:18:48.103Z,99.90
2023-02-22T00:21:16.767Z,99.90
2023-02-22T00:23:46.656Z,99.90
2023-02-22T00:26:23.413Z,99.90
2023-02-22T00:28:54.209Z,99.90
2023-02-22T00:31:21.623Z,99.90
2023-02-22T00:33:48.364Z,99.90
2023-02-22T00:36:15.259Z,99.90
2023-02-22T00:38:42.166Z,99.90
2023-02-22T00:41:09.187Z,99.90
2023-02-22T00:43:36.092Z,99.90
2023-02-22T00:46:03.244Z,99.90
2023-02-22T00:48:29.914Z,99.90
2023-02-22T00:50:56.693Z,99.90
2023-02-22T00:53:25.037Z,99.90
2023-02-22T00:55:52.343Z,99.90
2023-02-22T00:58:19.121Z,99.90
2023-02-22T01:00:45.959Z,99.90
2023-02-22T01:03:15.008Z,99.90
2023-02-22T01:05:41.994Z,99.90
2023-02-22T01:08:11.108Z,99.90
2023-02-22T01:10:39.023Z,99.90
2023-02-22T01:13:09.050Z,99.90
2023-02-22T01:15:37.716Z,99.90
2023-02-22T01:18:05.191Z,99.90
2023-02-22T01:20:32.714Z,99.90
2023-02-22T01:23:03.529Z,99.90
2023-02-22T01:25:31.358Z,99.90
2023-02-22T01:27:59.810Z,99.90
2023-02-22T01:30:29.567Z,99.90
2023-02-22T01:32:56.535Z,99.90
2023-02-22T01:35:27.810Z,99.90
2023-02-22T01:37:55.170Z,99.90
2023-02-22T01:40:35.011Z,99.90
2023-02-22T01:43:15.508Z,99.90
2023-02-22T01:45:55.048Z,99.90
2023-02-22T01:48:27.905Z,99.90
2023-02-22T01:50:59.079Z,99.90
2023-02-22T01:53:34.859Z,99.90
2023-02-22T01:56:02.635Z,99.90
2023-02-22T01:58:32.368Z,99.90
2023-02-22T02:00:59.091Z,99.90
2023-02-22T02:03:30.701Z,99.90
2023-02-22T02:06:02.419Z,99.90
2023-02-22T02:08:36.132Z,99.90
2023-02-22T02:11:09.228Z,99.90
2023-02-22T02:13:36.585Z,99.90
2023-02-22T02:16:03.672Z,99.90
2023-02-22T02:18:32.503Z,99.90
2023-02-22T02:21:43.898Z,99.90
2023-02-22T02:24:33.009Z,99.90
2023-02-22T02:27:11.415Z,99.90
2023-02-22T02:29:46.953Z,99.90
2023-02-22T02:32:36.112Z,99.90
2023-02-22T02:35:21.676Z,99.90
2023-02-22T02:38:08.051Z,99.90
2023-02-22T02:41:03.271Z,99.90
2023-02-22T02:43:36.767Z,99.90
2023-02-22T02:46:18.315Z,99.90
2023-02-22T02:48:54.784Z,99.90
2023-02-22T02:51:23.591Z,99.90
2023-02-22T02:53:52.397Z,99.90
2023-02-22T02:56:19.624Z,99.90
2023-02-22T02:58:53.685Z,99.90
2023-02-22T03:01:42.604Z,99.90
2023-02-22T03:04:43.392Z,99.90
2023-02-22T03:07:31.079Z,99.90
2023-02-22T03:10:33.194Z,99.90
2023-02-22T03:13:36.244Z,99.90
2023-02-22T03:16:05.903Z,99.90
2023-02-22T03:19:13.004Z,99.90
2023-02-22T03:22:02.438Z,99.90
2023-02-22T03:24:42.417Z,99.90
2023-02-22T03:27:12.228Z,99.90
2023-02-22T03:29:45.061Z,99.90
2023-02-22T03:32:20.222Z,99.90
2023-02-22T03:34:53.032Z,99.90
2023-02-22T03:37:24.069Z,99.90
2023-02-22T03:39:54.248Z,99.90
2023-02-22T03:42:40.773Z,99.90
2023-02-22T03:45:10.437Z,99.90
2023-02-22T03:47:42.118Z,99.90
2023-02-22T03:50:21.991Z,99.90
2023-02-22T03:52:48.956Z,99.90
2023-02-22T03:55:17.670Z,99.90
2023-02-22T03:57:49.422Z,99.90
2023-02-22T04:00:20.171Z,99.90
2023-02-22T04:02:46.797Z,99.90
2023-02-22T04:05:14.207Z,99.90
2023-02-22T04:07:41.623Z,99.90
2023-02-22T04:10:09.915Z,99.90
2023-02-22T04:12:37.207Z,99.90
2023-02-22T04:15:06.996Z,99.90
2023-02-22T04:17:33.630Z,99.90
2023-02-22T04:20:00.372Z,99.90
2023-02-22T04:22:27.051Z,99.90
2023-02-22T04:24:53.720Z,99.90
2023-02-22T04:27:20.419Z,99.90
2023-02-22T04:29:47.029Z,99.90
2023-02-22T04:32:13.617Z,99.90
2023-02-22T04:34:40.238Z,99.90
2023-02-22T04:37:07.622Z,99.90
2023-02-22T04:39:34.323Z,99.90
2023-02-22T04:42:00.921Z,99.90
2023-02-22T04:44:27.556Z,99.90
2023-02-22T04:46:54.207Z,99.90
2023-02-22T04:49:20.857Z,99.90
2023-02-22T04:51:47.546Z,99.90
2023-02-22T04:54:14.263Z,99.90
2023-02-22T04:56:40.869Z,99.90
2023-02-22T04:59:07.497Z,99.90
2023-02-22T05:01:36.047Z,99.90
2023-02-22T05:04:07.585Z,99.90
2023-02-22T05:06:34.599Z,99.90
2023-02-22T05:09:01.250Z,99.90
2023-02-22T05:11:28.261Z,99.90
2023-02-22T05:13:54.941Z,99.90
2023-02-22T05:16:21.746Z,99.90
2023-02-22T05:18:48.414Z,99.90
2023-02-22T05:21:15.173Z,99.90
2023-02-22T05:23:42.000Z,99.90
2023-02-22T05:26:11.667Z,99.90
2023-02-22T05:28:39.093Z,99.90
2023-02-22T05:31:07.366Z,99.90
2023-02-22T05:33:34.223Z,99.90
2023-02-22T05:36:00.872Z,99.90
2023-02-22T05:38:27.629Z,99.90
2023-02-22T05:40:54.352Z,99.90
2023-02-22T05:43:20.998Z,99.90
2023-02-22T05:45:47.622Z,99.90
2023-02-22T05:48:14.239Z,99.90
2023-02-22T05:50:40.879Z,99.90
2023-02-22T05:53:07.553Z,99.90
2023-02-22T05:55:34.233Z,99.90
2023-02-22T05:58:01.706Z,99.90
2023-02-22T06:00:30.649Z,99.90
2023-02-22T06:02:58.203Z,99.90
2023-02-22T06:05:25.431Z,99.90
2023-02-22T06:07:52.261Z,99.90
2023-02-22T06:10:18.899Z,99.90
2023-02-22T06:12:46.212Z,99.90
2023-02-22T06:15:13.935Z,99.90
2023-02-22T06:17:41.808Z,99.90
2023-02-22T06:20:11.064Z,99.90
2023-02-22T06:22:37.857Z,99.90
2023-02-22T06:25:05.871Z,99.90
2023-02-22T06:27:33.150Z,99.90
2023-02-22T06:30:00.736Z,99.90
2023-02-22T06:32:28.322Z,99.90
2023-02-22T06:34:54.953Z,99.90
2023-02-22T06:37:21.615Z,99.90
2023-02-22T06:39:48.234Z,99.90
2023-02-22T06:42:14.906Z,99.90
2023-02-22T06:44:41.584Z,99.90
2023-02-22T06:47:08.214Z,99.90
2023-02-22T06:49:34.879Z,99.90
2023-02-22T06:52:01.785Z,99.90
2023-02-22T06:54:28.396Z,99.90
2023-02-22T06:56:55.049Z,99.90
2023-02-22T06:59:23.444Z,99.90
2023-02-22T07:01:50.059Z,99.90
2023-02-22T07:04:16.696Z,99.90
2023-02-22T07:06:50.223Z,99.90
2023-02-22T07:09:18.330Z,99.90
2023-02-22T07:11:45.012Z,99.90
2023-02-22T07:14:11.678Z,99.90
2023-02-22T07:16:38.348Z,99.90
2023-02-22T07:19:04.995Z,99.90
2023-02-22T07:21:31.627Z,99.90
2023-02-22T07:23:59.153Z,99.90
2023-02-22T07:26:26.691Z,99.90
2023-02-22T07:28:53.594Z,99.90
2023-02-22T07:31:20.230Z,99.90
2023-02-22T07:33:48.030Z,99.90
2023-02-22T07:36:17.770Z,99.90
2023-02-22T07:38:47.294Z,99.90
2023-02-22T07:41:14.021Z,99.90
2023-02-22T07:43:40.699Z,99.90
2023-02-22T07:46:07.572Z,99.90
2023-02-22T07:48:34.273Z,99.90
2023-02-22T07:51:00.935Z,99.90
2023-02-22T07:53:30.295Z,99.90
2023-02-22T07:55:58.381Z,99.90
2023-02-22T07:58:27.137Z,99.90
2023-02-22T08:00:54.269Z,99.90
2023-02-22T08:03:23.827Z,99.90
2023-02-22T08:05:54.345Z,99.90
2023-02-22T08:08:21.672Z,99.90
2023-02-22T08:10:49.150Z,99.90
2023-02-22T08:13:16.694Z,99.90
2023-02-22T08:15:44.238Z,99.90
2023-02-22T08:18:13.631Z,99.90
2023-02-22T08:20:42.510Z,99.90
2023-02-22T08:23:10.486Z,99.90
2023-02-22T08:25:37.550Z,99.90
2023-02-22T08:28:07.128Z,99.90
2023-02-22T08:30:35.069Z,99.90
2023-02-22T08:33:03.098Z,99.90
2023-02-22T08:35:32.297Z,99.90
2023-02-22T08:38:01.885Z,99.90
2023-02-22T08:40:33.632Z,99.90
2023-02-22T08:43:01.637Z,99.90
2023-02-22T08:45:28.733Z,99.90
2023-02-22T08:47:55.491Z,99.90
2023-02-22T08:50:33.689Z,99.90
2023-02-22T08:53:03.152Z,99.90
2023-02-22T08:55:33.490Z,99.90
2023-02-22T08:58:02.846Z,99.90
2023-02-22T09:00:32.950Z,99.90
2023-02-22T09:03:03.661Z,99.90
2023-02-22T09:05:31.617Z,99.90
2023-02-22T09:07:59.178Z,99.90
2023-02-22T09:10:28.361Z,99.90
2023-02-22T09:12:55.922Z,99.90
2023-02-22T09:15:24.403Z,99.90
2023-02-22T09:17:51.437Z,99.90
2023-02-22T09:20:19.927Z,99.90
2023-02-22T09:22:47.082Z,99.90
2023-02-22T09:25:16.953Z,99.90
2023-02-22T09:27:47.856Z,99.90
2023-02-22T09:30:33.201Z,99.90
2023-02-22T09:33:21.214Z,99.90
2023-02-22T09:35:49.883Z,99.90
2023-02-22T09:38:22.950Z,99.90
2023-02-22T09:40:54.217Z,99.90
2023-02-22T09:43:37.919Z,99.90
2023-02-22T09:46:13.774Z,99.90
2023-02-22T09:49:03.512Z,99.90
2023-02-22T09:51:45.242Z,99.90
2023-02-22T09:54:21.378Z,99.90
2023-02-22T09:56:50.064Z,99.90
2023-02-22T09:59:23.085Z,99.90
2023-02-22T10:01:58.224Z,99.90
2023-02-22T10:04:36.500Z,99.90
2023-02-22T10:07:26.005Z,99.90
2023-02-22T10:09:56.486Z,99.90
2023-02-22T10:12:30.023Z,99.90
2023-02-22T10:15:16.575Z,99.90
2023-02-22T10:18:00.570Z,99.90
2023-02-22T10:20:53.963Z,99.90
2023-02-22T10:23:53.493Z,99.90
2023-02-22T10:26:28.584Z,99.90
2023-02-22T10:29:24.280Z,99.90
2023-02-22T10:31:56.793Z,99.90
2023-02-22T10:34:26.510Z,99.90
2023-02-22T10:37:17.244Z,99.90
2023-02-22T10:39:45.631Z,99.90
2023-02-22T10:42:12.498Z,99.90
2023-02-22T10:44:40.535Z,99.90
2023-02-22T10:47:10.594Z,99.90
2023-02-22T10:49:43.695Z,99.90
2023-02-22T10:52:19.870Z,99.90
2023-02-22T10:54:50.097Z,99.90
2023-02-22T10:57:21.165Z,99.90
2023-02-22T10:59:47.819Z,99.90
2023-02-22T11:02:29.557Z,99.90
2023-02-22T11:05:00.404Z,99.90
2023-02-22T11:07:29.000Z,99.90
2023-02-22T11:10:01.173Z,99.90
2023-02-22T11:12:39.377Z,99.90
2023-02-22T11:15:22.161Z,99.90
2023-02-22T11:17:51.659Z,99.90
2023-02-22T11:20:27.005Z,99.50
2023-02-22T11:22:56.163Z,99.10
2023-02-22T11:25:27.594Z,98.00
2023-02-22T11:27:54.863Z,95.10
2023-02-22T11:30:30.355Z,94.40
2023-02-22T11:33:17.271Z,93.80
2023-02-22T11:35:56.871Z,90.40
2023-02-22T11:38:26.344Z,90.30
2023-02-22T11:41:16.601Z,91.20
2023-02-22T11:43:45.773Z,91.50
2023-02-22T11:46:42.220Z,90.60
2023-02-22T11:49:11.565Z,91.20
2023-02-22T11:51:57.043Z,91.50
2023-02-22T11:54:53.910Z,92.10
2023-02-22T11:57:22.098Z,93.10
2023-02-22T12:00:16.135Z,93.40
2023-02-22T12:02:59.912Z,93.80
2023-02-22T12:05:59.334Z,94.90
2023-02-22T12:08:38.817Z,95.10
2023-02-22T12:11:31.463Z,95.60
2023-02-22T12:14:34.068Z,95.30
2023-02-22T12:17:20.396Z,95.20
2023-02-22T12:20:21.919Z,93.10
2023-02-22T12:23:12.749Z,93.60
2023-02-22T12:25:46.970Z,92.30
2023-02-22T12:28:24.559Z,91.00
2023-02-22T12:31:22.954Z,90.10
2023-02-22T12:34:11.761Z,88.70
2023-02-22T12:36:51.788Z,86.80
2023-02-22T12:39:53.176Z,83.50
2023-02-22T12:42:53.529Z,81.90
2023-02-22T12:45:32.088Z,83.00
2023-02-22T12:48:29.275Z,80.50
2023-02-22T12:51:03.975Z,77.30
2023-02-22T12:53:37.042Z,77.10
2023-02-22T12:56:20.145Z,75.70
2023-02-22T12:58:55.308Z,77.10
2023-02-22T13:01:25.832Z,77.90
2023-02-22T13:03:54.084Z,77.50
2023-02-22T13:06:26.618Z,79.30
2023-02-22T13:09:07.095Z,80.50
2023-02-22T13:11:54.478Z,81.60
2023-02-22T13:14:43.360Z,81.80
2023-02-22T13:17:20.977Z,81.90
2023-02-22T13:20:12.832Z,81.90
2023-02-22T13:23:00.242Z,80.00
2023-02-22T13:25:41.150Z,79.80
2023-02-22T13:28:35.726Z,78.00
2023-02-22T13:31:26.894Z,76.80
2023-02-22T13:34:04.325Z,77.50
2023-02-22T13:36:38.503Z,78.20
2023-02-22T13:39:29.008Z,77.60
2023-02-22T13:42:19.012Z,78.10
2023-02-22T13:44:51.537Z,77.90
2023-02-22T13:47:38.814Z,79.00
2023-02-22T13:50:43.058Z,78.40
2023-02-22T13:53:20.057Z,79.40
2023-02-22T13:55:53.020Z,79.90
2023-02-22T13:58:20.883Z,79.90
2023-02-22T14:00:50.306Z,81.70
2023-02-22T14:03:35.960Z,82.60
2023-02-22T14:06:04.729Z,84.20
2023-02-22T14:08:31.583Z,85.10
2023-02-22T14:11:06.517Z,86.30
2023-02-22T14:13:58.001Z,88.20
2023-02-22T14:16:27.054Z,88.60
2023-02-22T14:19:14.321Z,89.30
2023-02-22T14:22:06.668Z,90.40
2023-02-22T14:24:47.670Z,90.80
2023-02-22T14:27:15.498Z,91.20
2023-02-22T14:29:57.083Z,91.60
2023-02-22T14:32:35.074Z,91.70
2023-02-22T14:35:26.511Z,92.60
2023-02-22T14:37:58.951Z,93.20
2023-02-22T14:40:31.240Z,93.70
2023-02-22T14:43:03.894Z,93.90
2023-02-22T14:45:34.511Z,93.70
2023-02-22T14:48:16.247Z,93.90
2023-02-22T14:50:50.773Z,94.20
2023-02-22T14:53:43.965Z,94.60
2023-02-22T14:56:28.534Z,94.60
2023-02-22T14:59:19.096Z,94.90
2023-02-22T15:02:01.739Z,95.30
2023-02-22T15:04:32.615Z,95.50
2023-02-22T15:07:01.108Z,95.50
2023-02-22T15:09:34.378Z,95.70
2023-02-22T15:12:04.337Z,95.90
2023-02-22T15:14:38.816Z,96.20
2023-02-22T15:17:19.760Z,96.60
2023-02-22T15:19:50.423Z,97.10
2023-02-22T15:22:27.002Z,97.20
2023-02-22T15:25:06.433Z,97.00
2023-02-22T15:27:37.028Z,97.20
2023-02-22T15:30:28.798Z,97.30
2023-02-22T15:33:04.245Z,97.30
2023-02-22T15:35:33.407Z,97.40
2023-02-22T15:38:12.418Z,97.30
2023-02-22T15:40:43.065Z,97.20
2023-02-22T15:43:19.757Z,97.30
2023-02-22T15:45:46.577Z,97.40
2023-02-22T15:48:15.753Z,97.50
2023-02-22T15:51:10.444Z,97.80
2023-02-22T15:53:49.360Z,98.10
2023-02-22T15:56:19.100Z,98.50
2023-02-22T15:58:47.584Z,98.80
2023-02-22T16:01:18.949Z,98.90
2023-02-22T16:03:58.278Z,99.30
2023-02-22T16:06:35.154Z,99.60
2023-02-22T16:09:11.816Z,99.90
2023-02-22T16:11:43.384Z,99.90
2023-02-22T16:14:35.013Z,99.90
2023-02-22T16:17:41.136Z,99.90
2023-02-22T16:20:13.088Z,99.90
2023-02-22T16:22:40.979Z,99.90
2023-02-22T16:25:21.335Z,99.90
2023-02-22T16:27:53.376Z,99.90
2023-02-22T16:30:28.727Z,99.90
2023-02-22T16:32:56.985Z,99.90
2023-02-22T16:35:28.634Z,99.90
2023-02-22T16:38:01.472Z,99.90
2023-02-22T16:40:34.338Z,99.90
2023-02-22T16:43:11.637Z,99.90
2023-02-22T16:45:39.298Z,99.90
2023-02-22T16:48:18.246Z,99.90
2023-02-22T16:50:44.975Z,99.90
2023-02-22T16:53:12.094Z,99.90
2023-02-22T16:55:41.644Z,99.90
2023-02-22T16:58:13.985Z,99.90
2023-02-22T17:00:42.227Z,99.90
2023-02-22T17:03:15.282Z,99.90
2023-02-22T17:05:42.595Z,99.90
2023-02-22T17:08:09.279Z,99.90
2023-02-22T17:10:37.160Z,99.90
2023-02-22T17:13:21.272Z,99.90
2023-02-22T17:15:49.003Z,99.90
2023-02-22T17:18:22.358Z,99.90
2023-02-22T17:20:53.073Z,99.90
2023-02-22T17:23:20.491Z,99.90
2023-02-22T17:26:02.147Z,99.90
2023-02-22T17:28:29.402Z,99.90
2023-02-22T17:31:01.364Z,99.90
2023-02-22T17:33:32.736Z,99.90
2023-02-22T17:36:01.837Z,99.90
2023-02-22T17:38:30.640Z,99.90
2023-02-22T17:40:59.216Z,99.90
2023-02-22T17:43:27.963Z,99.90
2023-02-22T17:45:55.289Z,99.90
2023-02-22T17:48:24.237Z,99.90
2023-02-22T17:50:51.503Z,99.90
2023-02-22T17:53:21.664Z,99.90
2023-02-22T17:55:48.791Z,99.90
2023-02-22T17:58:15.938Z,99.90
2023-02-22T18:00:47.993Z,99.90
2023-02-22T18:03:25.296Z,99.90
2023-02-22T18:05:56.338Z,99.90
2023-02-22T18:08:24.449Z,99.90
2023-02-22T18:10:56.218Z,99.90
2023-02-22T18:13:24.632Z,99.90
2023-02-22T18:15:51.567Z,99.90
2023-02-22T18:18:18.789Z,99.90
2023-02-22T18:20:47.160Z,99.90
2023-02-22T18:23:16.531Z,99.90
2023-02-22T18:26:03.754Z,99.90
2023-02-22T18:28:36.408Z,99.90
2023-02-22T18:31:14.405Z,99.90
2023-02-22T18:33:43.183Z,99.90
2023-02-22T18:36:13.456Z,99.90
2023-02-22T18:38:42.879Z,99.90
2023-02-22T18:41:15.189Z,99.90
2023-02-22T18:43:42.489Z,99.90
2023-02-22T18:46:14.932Z,99.90
2023-02-22T18:48:41.904Z,99.90
2023-02-22T18:51:11.498Z,99.90
2023-02-22T18:53:40.926Z,99.90
2023-02-22T18:56:10.635Z,99.90
2023-02-22T18:58:38.701Z,99.90
2023-02-22T19:01:06.930Z,99.90
2023-02-22T19:03:37.961Z,99.90
2023-02-22T19:06:10.083Z,99.90
2023-02-22T19:08:39.500Z,99.90
2023-02-22T19:11:08.650Z,99.90
2023-02-22T19:13:35.645Z,99.90
2023-02-22T19:16:07.209Z,99.90
2023-02-22T19:18:34.086Z,99.90
2023-02-22T19:21:02.580Z,99.90
2023-02-22T19:23:34.196Z,99.90
2023-02-22T19:26:02.446Z,99.90
2023-02-22T19:28:34.060Z,99.90
2023-02-22T19:31:31.549Z,99.90
2023-02-22T19:34:08.680Z,99.90
2023-02-22T19:36:41.141Z,99.90
2023-02-22T19:39:08.396Z,99.90
2023-02-22T19:41:35.026Z,99.90
2023-02-22T19:44:01.860Z,99.90
2023-02-22T19:46:28.768Z,99.90
2023-02-22T19:48:55.897Z,99.90
2023-02-22T19:51:25.462Z,99.90
2023-02-22T19:53:53.128Z,99.90
2023-02-22T19:56:26.960Z,99.90
2023-02-22T19:58:55.510Z,99.90
2023-02-22T20:01:24.538Z,99.90
2023-02-22T20:03:54.321Z,99.90
2023-02-22T20:06:23.083Z,99.90
2023-02-22T20:08:51.002Z,99.90
2023-02-22T20:11:18.037Z,99.90
2023-02-22T20:13:44.977Z,99.90
2023-02-22T20:16:15.547Z,99.90
2023-02-22T20:18:46.364Z,99.90
2023-02-22T20:21:25.875Z,99.90
2023-02-22T20:23:56.933Z,99.90
2023-02-22T20:26:24.673Z,99.90
2023-02-22T20:28:52.266Z,99.90
2023-02-22T20:31:20.867Z,99.90
2023-02-22T20:33:52.023Z,99.90
2023-02-22T20:36:19.447Z,99.90
2023-02-22T20:38:46.904Z,99.90
2023-02-22T20:41:16.176Z,99.90
2023-02-22T20:43:43.011Z,99.90
2023-02-22T20:46:09.682Z,99.90
2023-02-22T20:48:36.329Z,99.90
2023-02-22T20:51:14.127Z,99.90
2023-02-22T20:53:43.424Z,99.90
2023-02-22T20:56:18.521Z,99.90
2023-02-22T20:58:46.128Z,99.90
2023-02-22T21:01:16.944Z,99.90
2023-02-22T21:03:43.978Z,99.90
2023-02-22T21:06:15.277Z,99.90
2023-02-22T21:08:44.008Z,99.90
2023-02-22T21:11:15.599Z,99.90
2023-02-22T21:13:42.354Z,99.90
2023-02-22T21:16:15.298Z,99.90
2023-02-22T21:18:41.915Z,99.90
2023-02-22T21:21:10.364Z,99.90
2023-02-22T21:23:38.264Z,99.90
2023-02-22T21:26:05.422Z,99.90
2023-02-22T21:28:50.585Z,99.90
2023-02-22T21:31:23.476Z,99.90
2023-02-22T21:33:52.903Z,99.90
2023-02-22T21:36:20.684Z,99.90
2023-02-22T21:38:53.103Z,99.90
2023-02-22T21:41:21.384Z,99.90
2023-02-22T21:43:51.699Z,99.90
2023-02-22T21:46:18.798Z,99.90
2023-02-22T21:48:48.938Z,99.90
2023-02-22T21:51:25.334Z,99.90
2023-02-22T21:53:54.321Z,99.90
2023-02-22T21:56:24.458Z,99.90
2023-02-22T21:58:59.104Z,99.90
2023-02-22T22:01:31.457Z,99.90
2023-02-22T22:03:59.981Z,99.90
2023-02-22T22:06:28.891Z,99.90
2023-02-22T22:08:56.295Z,99.90
2023-02-22T22:11:25.014Z,99.90
2023-02-22T22:13:53.640Z,99.90
2023-02-22T22:16:22.172Z,99.90
2023-02-22T22:18:48.944Z,99.90
2023-02-22T22:21:25.409Z,99.90
2023-02-22T22:23:57.325Z,99.90
2023-02-22T22:26:25.453Z,99.90
2023-02-22T22:28:54.671Z,99.90
2023-02-22T22:31:23.948Z,99.90
2023-02-22T22:33:51.430Z,99.90
2023-02-22T22:36:21.161Z,99.90
2023-02-22T22:38:48.612Z,99.90
2023-02-22T22:41:19.070Z,99.90
2023-02-22T22:43:47.068Z,99.90
2023-02-22T22:46:16.271Z,99.90
2023-02-22T22:48:46.656Z,99.90
2023-02-22T22:51:16.689Z,99.90
2023-02-22T22:53:45.246Z,99.90
2023-02-22T22:56:14.708Z,99.90
2023-02-22T22:58:52.911Z,99.90
2023-02-22T23:01:26.770Z,99.90
2023-02-22T23:03:59.810Z,99.90
2023-02-22T23:06:34.312Z,99.90
2023-02-22T23:09:11.092Z,99.90
2023-02-22T23:11:44.338Z,99.90
2023-02-22T23:14:14.017Z,99.90
2023-02-22T23:16:42.423Z,99.90
2023-02-22T23:19:09.458Z,99.90
2023-02-22T23:21:37.093Z,99.90
2023-02-22T23:24:07.373Z,99.90
2023-02-22T23:26:34.574Z,99.90
2023-02-22T23:29:02.029Z,99.90
2023-02-22T23:31:29.006Z,99.90
2023-02-22T23:33:58.701Z,99.90
2023-02-22T23:36:26.389Z,99.90
2023-02-22T23:38:54.156Z,99.90
2023-02-22T23:41:21.143Z,99.90
2023-02-22T23:43:47.849Z,99.90
2023-02-22T23:46:19.888Z,99.90
2023-02-22T23:48:54.528Z,99.90
2023-02-22T23:51:26.449Z,99.90
2023-02-22T23:53:57.334Z,99.90
2023-02-22T23:56:26.676Z,99.90
2023-02-22T23:58:57.059Z,99.90
